NCAR-RAP Real-Time Weather Data

Output produced by METARs form (19 November 2018  12:17 UTC)
found at http://weather.rap.ucar.edu/surface/
 
Conditions at: KTPA observed 19 November 2018  11:53 UTC
Temperature: 18.3°C (65°F)
Dewpoint: 16.1°C (61°F) [RH = 87%]
Pressure (altimeter): 30.11 inches Hg (1019.7 mb)
[Sea-level pressure: 1019.6 mb]
Winds: from the NE (40 degrees) at 3 MPH (3 knots; 1.6 m/s)
Visibility: 10 or more miles (16+ km)
Ceiling: at least 12,000 feet AGL
Clouds: scattered clouds at 7000 feet AGL
Present Weather: no significant weather observed at this time
KTPA 191153Z 04003KT 10SM SCT070 18/16 A3011 RMK AO2 SLP196 T01830161 10194 20183 53009

Conditions at: KTPA observed 19 November 2018  10:53 UTC
Temperature: 18.9°C (66°F)
Dewpoint: 16.1°C (61°F) [RH = 84%]
Pressure (altimeter): 30.10 inches Hg (1019.4 mb)
[Sea-level pressure: 1019.3 mb]
Winds: from the NNE (30 degrees) at 5 MPH (4 knots; 2.1 m/s)
Visibility: 10 or more miles (16+ km)
Ceiling: at least 12,000 feet AGL
Clouds: scattered clouds at 6500 feet AGL
Present Weather: no significant weather observed at this time
KTPA 191053Z 03004KT 10SM SCT065 19/16 A3010 RMK AO2 SLP193 T01890161

Conditions at: KTPA observed 19 November 2018  09:53 UTC
Temperature: 18.9°C (66°F)
Dewpoint: 16.1°C (61°F) [RH = 84%]
Pressure (altimeter): 30.09 inches Hg (1019.0 mb)
[Sea-level pressure: 1018.9 mb]
Winds: from the ENE (60 degrees) at 5 MPH (4 knots; 2.1 m/s)
Visibility: 10 or more miles (16+ km)
Ceiling: 9000 feet AGL
Clouds: few clouds at 6000 feet AGL
scattered clouds at 7500 feet AGL
broken clouds at 9000 feet AGL
Present Weather: no significant weather observed at this time
KTPA 190953Z 06004KT 10SM FEW060 SCT075 BKN090 19/16 A3009 RMK AO2 SLP189 T01890161

Conditions at: KTPA observed 19 November 2018  08:53 UTC
Temperature: 18.9°C (66°F)
Dewpoint: 16.1°C (61°F) [RH = 84%]
Pressure (altimeter): 30.09 inches Hg (1019.0 mb)
[Sea-level pressure: 1018.7 mb]
Winds: from the NNE (20 degrees) at 6 MPH (5 knots; 2.6 m/s)
Visibility: 10 or more miles (16+ km)
Ceiling: 6500 feet AGL
Clouds: few clouds at 3900 feet AGL
overcast cloud deck at 6500 feet AGL
Present Weather: no significant weather observed at this time
KTPA 190853Z 02005KT 10SM FEW039 OVC065 19/16 A3009 RMK AO2 SLP187 T01890161 56004

Conditions at: KTPA observed 19 November 2018  07:53 UTC
Temperature: 18.3°C (65°F)
Dewpoint: 15.6°C (60°F) [RH = 84%]
Pressure (altimeter): 30.09 inches Hg (1019.0 mb)
[Sea-level pressure: 1018.7 mb]
Winds: from the NNE (20 degrees) at 5 MPH (4 knots; 2.1 m/s)
Visibility: 10 or more miles (16+ km)
Ceiling: at least 12,000 feet AGL
Clouds: few clouds at 3600 feet AGL
scattered clouds at 6000 feet AGL
Present Weather: no significant weather observed at this time
KTPA 190753Z 02004KT 10SM FEW036 SCT060 18/16 A3009 RMK AO2 SLP187 T01830156

Conditions at: KTPA observed 19 November 2018  06:53 UTC
Temperature: 18.9°C (66°F)
Dewpoint: 15.6°C (60°F) [RH = 81%]
Pressure (altimeter): 30.09 inches Hg (1019.0 mb)
[Sea-level pressure: 1018.9 mb]
Winds: from the NNE (20 degrees) at 6 MPH (5 knots; 2.6 m/s)
Visibility: 10 or more miles (16+ km)
Ceiling: 6000 feet AGL
Clouds: broken clouds at 6000 feet AGL
broken clouds at 9000 feet AGL
Present Weather: no significant weather observed at this time
KTPA 190653Z 02005KT 10SM BKN060 BKN090 19/16 A3009 RMK AO2 SLP189 T01890156

Conditions at: KTPA observed 19 November 2018  05:53 UTC
Temperature: 18.9°C (66°F)
Dewpoint: 15.0°C (59°F) [RH = 78%]
Pressure (altimeter): 30.10 inches Hg (1019.4 mb)
[Sea-level pressure: 1019.2 mb]
Winds: from the N (10 degrees) at 6 MPH (5 knots; 2.6 m/s)
Visibility: 10 or more miles (16+ km)
Ceiling: 7500 feet AGL
Clouds: few clouds at 6000 feet AGL
broken clouds at 7500 feet AGL
overcast cloud deck at 9000 feet AGL
Present Weather: no significant weather observed at this time
KTPA 190553Z 01005KT 10SM FEW060 BKN075 OVC090 19/15 A3010 RMK AO2 SLP192 T01890150 10211 20189 58010

Conditions at: KTPA observed 19 November 2018  04:53 UTC
Temperature: 19.4°C (67°F)
Dewpoint: 14.4°C (58°F) [RH = 73%]
Pressure (altimeter): 30.11 inches Hg (1019.7 mb)
[Sea-level pressure: 1019.4 mb]
Winds: from the NNE (20 degrees) at 6 MPH (5 knots; 2.6 m/s)
Visibility: 10 or more miles (16+ km)
Ceiling: 8000 feet AGL
Clouds: scattered clouds at 6000 feet AGL
broken clouds at 8000 feet AGL
Present Weather: no significant weather observed at this time
KTPA 190453Z 02005KT 10SM SCT060 BKN080 19/14 A3011 RMK AO2 SLP194 T01940144 402670150

Conditions at: KTPA observed 19 November 2018  03:53 UTC
Temperature: 19.4°C (67°F)
Dewpoint: 14.4°C (58°F) [RH = 73%]
Pressure (altimeter): 30.12 inches Hg (1020.1 mb)
[Sea-level pressure: 1019.9 mb]
Winds: from the N (10 degrees) at 9 MPH (8 knots; 4.2 m/s)
Visibility: 10 or more miles (16+ km)
Ceiling: 6000 feet AGL
Clouds: broken clouds at 6000 feet AGL
broken clouds at 9000 feet AGL
Present Weather: no significant weather observed at this time
KTPA 190353Z 01008KT 10SM BKN060 BKN090 19/14 A3012 RMK AO2 SLP199 T01940144

Conditions at: KTPA observed 19 November 2018  02:53 UTC
Temperature: 19.4°C (67°F)
Dewpoint: 15.0°C (59°F) [RH = 76%]
Pressure (altimeter): 30.13 inches Hg (1020.4 mb)
[Sea-level pressure: 1020.2 mb]
Winds: variable direction winds at 5 MPH (4 knots; 2.1 m/s)
Visibility: 10 or more miles (16+ km)
Ceiling: at least 12,000 feet AGL
Clouds: few clouds at 9000 feet AGL
Present Weather: no significant weather observed at this time
KTPA 190253Z VRB04KT 10SM FEW090 19/15 A3013 RMK AO2 SLP202 T01940150 51006

Conditions at: KTPA observed 19 November 2018  01:53 UTC
Temperature: 20.0°C (68°F)
Dewpoint: 15.6°C (60°F) [RH = 76%]
Pressure (altimeter): 30.13 inches Hg (1020.4 mb)
[Sea-level pressure: 1020.1 mb]
Winds: from the N (360 degrees) at 7 MPH (6 knots; 3.1 m/s)
Visibility: 10 or more miles (16+ km)
Ceiling: at least 12,000 feet AGL
Clouds: scattered clouds at 9000 feet AGL
Present Weather: no significant weather observed at this time
KTPA 190153Z 36006KT 10SM SCT090 20/16 A3013 RMK AO2 SLP201 T02000156

Conditions at: KTPA observed 19 November 2018  00:53 UTC
Temperature: 20.0°C (68°F)
Dewpoint: 16.1°C (61°F) [RH = 78%]
Pressure (altimeter): 30.13 inches Hg (1020.4 mb)
[Sea-level pressure: 1020.1 mb]
Winds: from the N (360 degrees) at 8 MPH (7 knots; 3.6 m/s)
Visibility: 10 or more miles (16+ km)
Ceiling: at least 12,000 feet AGL
Clouds: few clouds at 7000 feet AGL
Present Weather: no significant weather observed at this time
KTPA 190053Z 36007KT 10SM FEW070 20/16 A3013 RMK AO2 SLP201 T02000161

Conditions at: KTPA observed 18 November 2018  23:53 UTC
Temperature: 21.1°C (70°F)
Dewpoint: 16.7°C (62°F) [RH = 76%]
Pressure (altimeter): 30.11 inches Hg (1019.7 mb)
[Sea-level pressure: 1019.5 mb]
Winds: from the NNW (340 degrees) at 7 MPH (6 knots; 3.1 m/s)
Visibility: 10 or more miles (16+ km)
Ceiling: 35000 feet AGL
Clouds: broken clouds at 35000 feet AGL
Present Weather: no significant weather observed at this time
KTPA 182353Z 34006KT 10SM BKN350 21/17 A3011 RMK AO2 SLP195 T02110167 10267 20211 53006

Conditions at: KTPA observed 18 November 2018  22:53 UTC
Temperature: 22.2°C (72°F)
Dewpoint: 16.7°C (62°F) [RH = 71%]
Pressure (altimeter): 30.09 inches Hg (1019.0 mb)
[Sea-level pressure: 1018.9 mb]
Winds: from the NNW (330 degrees) at 7 MPH (6 knots; 3.1 m/s)
Visibility: 10 or more miles (16+ km)
Ceiling: at least 12,000 feet AGL
Clouds: few clouds at 4500 feet AGL
scattered clouds at 35000 feet AGL
Present Weather: no significant weather observed at this time
KTPA 182253Z 33006KT 10SM FEW045 SCT350 22/17 A3009 RMK AO2 SLP189 T02220167

Conditions at: KTPA observed 18 November 2018  21:53 UTC
Temperature: 24.4°C (76°F)
Dewpoint: 15.6°C (60°F) [RH = 58%]
Pressure (altimeter): 30.08 inches Hg (1018.7 mb)
[Sea-level pressure: 1018.6 mb]
Winds: from the WNW (300 degrees) at 7 MPH (6 knots; 3.1 m/s)
Visibility: 10 or more miles (16+ km)
Ceiling: 35000 feet AGL
Clouds: few clouds at 4800 feet AGL
few clouds at 8000 feet AGL
broken clouds at 35000 feet AGL
Present Weather: no significant weather observed at this time
KTPA 182153Z 30006KT 10SM FEW048 FEW080 BKN350 24/16 A3008 RMK AO2 SLP186 T02440156

Conditions at: KTPA observed 18 November 2018  20:53 UTC
Temperature: 25.0°C (77°F)
Dewpoint: 16.7°C (62°F) [RH = 60%]
Pressure (altimeter): 30.09 inches Hg (1019.0 mb)
[Sea-level pressure: 1018.9 mb]
Winds: from the WSW (250 degrees) at 7 MPH (6 knots; 3.1 m/s)
Visibility: 10 or more miles (16+ km)
Ceiling: 35000 feet AGL
Clouds: few clouds at 4400 feet AGL
broken clouds at 35000 feet AGL
Present Weather:
SOME DATA ABOVE MAY BE INACCURATE!!!
"$" is an indication the sensor requires maintenance
KTPA 182053Z 25006KT 10SM FEW044 BKN350 25/17 A3009 RMK AO2 SLP189 T02500167 56014 $

Conditions at: KTPA observed 18 November 2018  19:53 UTC
Temperature: 25.0°C (77°F)
Dewpoint: 16.1°C (61°F) [RH = 58%]
Pressure (altimeter): 30.10 inches Hg (1019.4 mb)
[Sea-level pressure: 1019.1 mb]
Winds: from the WSW (250 degrees) at 6 MPH (5 knots; 2.6 m/s)
Visibility: 10 or more miles (16+ km)
Ceiling: 8000 feet AGL
Clouds: few clouds at 5500 feet AGL
broken clouds at 8000 feet AGL
broken clouds at 35000 feet AGL
Present Weather:
SOME DATA ABOVE MAY BE INACCURATE!!!
"$" is an indication the sensor requires maintenance
KTPA 181953Z 25005KT 10SM FEW055 BKN080 BKN350 25/16 A3010 RMK AO2 SLP191 T02500161 $

Conditions at: KTPA observed 18 November 2018  18:53 UTC
Temperature: 25.6°C (78°F)
Dewpoint: 16.7°C (62°F) [RH = 58%]
Pressure (altimeter): 30.11 inches Hg (1019.7 mb)
[Sea-level pressure: 1019.5 mb]
Winds: variable direction winds at 3 MPH (3 knots; 1.6 m/s)
Visibility: 10 or more miles (16+ km)
Ceiling: 25000 feet AGL
Clouds: few clouds at 3500 feet AGL
scattered clouds at 8000 feet AGL
scattered clouds at 14000 feet AGL
broken clouds at 25000 feet AGL
Present Weather:
SOME DATA ABOVE MAY BE INACCURATE!!!
"$" is an indication the sensor requires maintenance
KTPA 181853Z VRB03KT 10SM FEW035 SCT080 SCT140 BKN250 26/17 A3011 RMK AO2 SLP195 T02560167 $

Conditions at: KTPA observed 18 November 2018  17:53 UTC
Temperature: 25.6°C (78°F)
Dewpoint: 15.6°C (60°F) [RH = 54%]
Pressure (altimeter): 30.13 inches Hg (1020.4 mb)
[Sea-level pressure: 1020.2 mb]
Winds: from the ESE (110 degrees) at 3 MPH (3 knots; 1.6 m/s)
Visibility: 10 or more miles (16+ km)
Ceiling: 8000 feet AGL
Clouds: few clouds at 3300 feet AGL
broken clouds at 8000 feet AGL
broken clouds at 25000 feet AGL
Present Weather:
SOME DATA ABOVE MAY BE INACCURATE!!!
"$" is an indication the sensor requires maintenance
KTPA 181753Z 11003KT 10SM FEW033 BKN080 BKN250 26/16 A3013 RMK AO2 SLP202 T02560156 10261 20156 58021 $

Conditions at: KTPA observed 18 November 2018  16:53 UTC
Temperature: 23.3°C (74°F)
Dewpoint: 16.1°C (61°F) [RH = 64%]
Pressure (altimeter): 30.17 inches Hg (1021.8 mb)
[Sea-level pressure: 1021.5 mb]
Winds: from the ENE (60 degrees) at 5 MPH (4 knots; 2.1 m/s)
Visibility: 10 or more miles (16+ km)
Ceiling: 7500 feet AGL
Clouds: broken clouds at 7500 feet AGL
broken clouds at 25000 feet AGL
Present Weather:
SOME DATA ABOVE MAY BE INACCURATE!!!
"$" is an indication the sensor requires maintenance
KTPA 181653Z 06004KT 10SM BKN075 BKN250 23/16 A3017 RMK AO2 SLP215 T02330161 $

Conditions at: KTPA observed 18 November 2018  15:53 UTC
Temperature: 22.2°C (72°F)
Dewpoint: 16.7°C (62°F) [RH = 71%]
Pressure (altimeter): 30.19 inches Hg (1022.4 mb)
[Sea-level pressure: 1022.3 mb]
Winds: variable direction winds at 5 MPH (4 knots; 2.1 m/s)
Visibility: 10 or more miles (16+ km)
Ceiling: 7500 feet AGL
Clouds: broken clouds at 7500 feet AGL
broken clouds at 25000 feet AGL
Present Weather: no significant weather observed at this time
KTPA 181553Z VRB04KT 10SM BKN075 BKN250 22/17 A3019 RMK AO2 SLP223 T02220167

Conditions at: KTPA observed 18 November 2018  14:53 UTC
Temperature: 20.6°C (69°F)
Dewpoint: 16.1°C (61°F) [RH = 75%]
Pressure (altimeter): 30.19 inches Hg (1022.4 mb)
[Sea-level pressure: 1022.4 mb]
Winds: from the NE (40 degrees) at 6 MPH (5 knots; 2.6 m/s)
Visibility: 10 or more miles (16+ km)
Ceiling: 25000 feet AGL
Clouds: scattered clouds at 7000 feet AGL
broken clouds at 25000 feet AGL
Present Weather: no significant weather observed at this time
KTPA 181453Z 04005KT 10SM SCT070 BKN250 21/16 A3019 RMK AO2 SLP224 T02060161 51013

Conditions at: KTPA observed 18 November 2018  13:53 UTC
Temperature: 18.3°C (65°F)
Dewpoint: 15.6°C (60°F) [RH = 84%]
Pressure (altimeter): 30.18 inches Hg (1022.1 mb)
[Sea-level pressure: 1022.0 mb]
Winds: from the NNE (30 degrees) at 8 MPH (7 knots; 3.6 m/s)
Visibility: 10 or more miles (16+ km)
Ceiling: at least 12,000 feet AGL
Clouds: scattered clouds at 6500 feet AGL
scattered clouds at 22000 feet AGL
Present Weather: no significant weather observed at this time
KTPA 181353Z 03007KT 10SM SCT065 SCT220 18/16 A3018 RMK AO2 SLP220 T01830156

Conditions at: KTPA observed 18 November 2018  12:53 UTC
Temperature: 16.7°C (62°F)
Dewpoint: 15.0°C (59°F) [RH = 90%]
Pressure (altimeter): 30.17 inches Hg (1021.8 mb)
[Sea-level pressure: 1021.7 mb]
Winds: from the NE (40 degrees) at 8 MPH (7 knots; 3.6 m/s)
Visibility: 10 or more miles (16+ km)
Ceiling: at least 12,000 feet AGL
Clouds: few clouds at 11000 feet AGL
scattered clouds at 22000 feet AGL
Present Weather: no significant weather observed at this time
KTPA 181253Z 04007KT 10SM FEW110 SCT220 17/15 A3017 RMK AO2 SLP217 T01670150

Conditions at: KTPA observed 18 November 2018  11:53 UTC
Temperature: 15.6°C (60°F)
Dewpoint: 14.4°C (58°F) [RH = 93%]
Pressure (altimeter): 30.15 inches Hg (1021.1 mb)
[Sea-level pressure: 1021.1 mb]
Winds: from the NE (40 degrees) at 6 MPH (5 knots; 2.6 m/s)
Visibility: 9 miles (14 km)
Ceiling: at least 12,000 feet AGL
Clouds: few clouds at 20000 feet AGL
few clouds at 28000 feet AGL
Present Weather: no significant weather observed at this time
KTPA 181153Z 04005KT 9SM FEW200 FEW280 16/14 A3015 RMK AO2 SLP211 T01560144 10156 20150 53009

Conditions at: KTPA observed 18 November 2018  10:53 UTC
Temperature: 15.6°C (60°F)
Dewpoint: 13.9°C (57°F) [RH = 90%]
Pressure (altimeter): 30.14 inches Hg (1020.7 mb)
[Sea-level pressure: 1020.6 mb]
Winds: from the NE (40 degrees) at 6 MPH (5 knots; 2.6 m/s)
Visibility: 10 or more miles (16+ km)
Ceiling: at least 12,000 feet AGL
Clouds: sky clear below 12,000 feet AGL
Present Weather: no significant weather observed at this time
KTPA 181053Z 04005KT 10SM CLR 16/14 A3014 RMK AO2 SLP206 T01560139

Conditions at: KTPA observed 18 November 2018  09:53 UTC
Temperature: 15.6°C (60°F)
Dewpoint: 13.9°C (57°F) [RH = 90%]
Pressure (altimeter): 30.13 inches Hg (1020.4 mb)
[Sea-level pressure: 1020.2 mb]
Winds: from the NNE (30 degrees) at 6 MPH (5 knots; 2.6 m/s)
Visibility: 10 or more miles (16+ km)
Ceiling: at least 12,000 feet AGL
Clouds: sky clear below 12,000 feet AGL
Present Weather: no significant weather observed at this time
KTPA 180953Z 03005KT 10SM CLR 16/14 A3013 RMK AO2 SLP202 T01560139

Conditions at: KTPA observed 18 November 2018  08:53 UTC
Temperature: 15.6°C (60°F)
Dewpoint: 13.9°C (57°F) [RH = 90%]
Pressure (altimeter): 30.13 inches Hg (1020.4 mb)
[Sea-level pressure: 1020.1 mb]
Winds: from the NE (40 degrees) at 6 MPH (5 knots; 2.6 m/s)
Visibility: 10 or more miles (16+ km)
Ceiling: at least 12,000 feet AGL
Clouds: sky clear below 12,000 feet AGL
Present Weather: no significant weather observed at this time
KTPA 180853Z 04005KT 10SM CLR 16/14 A3013 RMK AO2 SLP201 T01560139 56005

Conditions at: KTPA observed 18 November 2018  07:53 UTC
Temperature: 15.6°C (60°F)
Dewpoint: 13.9°C (57°F) [RH = 90%]
Pressure (altimeter): 30.13 inches Hg (1020.4 mb)
[Sea-level pressure: 1020.2 mb]
Winds: from the NNE (30 degrees) at 7 MPH (6 knots; 3.1 m/s)
Visibility: 10 or more miles (16+ km)
Ceiling: at least 12,000 feet AGL
Clouds: sky clear below 12,000 feet AGL
Present Weather: no significant weather observed at this time
KTPA 180753Z 03006KT 10SM CLR 16/14 A3013 RMK AO2 SLP202 T01560139

Conditions at: KTPA observed 18 November 2018  06:53 UTC
Temperature: 15.6°C (60°F)
Dewpoint: 13.9°C (57°F) [RH = 90%]
Pressure (altimeter): 30.13 inches Hg (1020.4 mb)
[Sea-level pressure: 1020.4 mb]
Winds: from the NNE (30 degrees) at 6 MPH (5 knots; 2.6 m/s)
Visibility: 10 or more miles (16+ km)
Ceiling: at least 12,000 feet AGL
Clouds: sky clear below 12,000 feet AGL
Present Weather: no significant weather observed at this time
KTPA 180653Z 03005KT 10SM CLR 16/14 A3013 RMK AO2 SLP204 T01560139

Conditions at: KTPA observed 18 November 2018  05:53 UTC
Temperature: 15.6°C (60°F)
Dewpoint: 13.3°C (56°F) [RH = 86%]
Pressure (altimeter): 30.14 inches Hg (1020.7 mb)
[Sea-level pressure: 1020.6 mb]
Winds: from the NNE (30 degrees) at 7 MPH (6 knots; 3.1 m/s)
Visibility: 10 or more miles (16+ km)
Ceiling: at least 12,000 feet AGL
Clouds: sky clear below 12,000 feet AGL
Present Weather: no significant weather observed at this time
KTPA 180553Z 03006KT 10SM CLR 16/13 A3014 RMK AO2 SLP206 T01560133 10178 20156 55003

Conditions at: KTPA observed 18 November 2018  04:53 UTC
Temperature: 16.1°C (61°F)
Dewpoint: 13.3°C (56°F) [RH = 83%]
Pressure (altimeter): 30.13 inches Hg (1020.4 mb)
[Sea-level pressure: 1020.3 mb]
Winds: from the NE (40 degrees) at 6 MPH (5 knots; 2.6 m/s)
Visibility: 10 or more miles (16+ km)
Ceiling: at least 12,000 feet AGL
Clouds: sky clear below 12,000 feet AGL
Present Weather: no significant weather observed at this time
KTPA 180453Z 04005KT 10SM CLR 16/13 A3013 RMK AO2 SLP203 T01610133 402390089

Conditions at: KTPA observed 18 November 2018  03:53 UTC
Temperature: 16.7°C (62°F)
Dewpoint: 12.2°C (54°F) [RH = 75%]
Pressure (altimeter): 30.14 inches Hg (1020.7 mb)
[Sea-level pressure: 1020.6 mb]
Winds: variable direction winds at 5 MPH (4 knots; 2.1 m/s)
Visibility: 10 or more miles (16+ km)
Ceiling: at least 12,000 feet AGL
Clouds: sky clear below 12,000 feet AGL
Present Weather: no significant weather observed at this time
KTPA 180353Z VRB04KT 10SM CLR 17/12 A3014 RMK AO2 SLP206 T01670122

Conditions at: KTPA observed 18 November 2018  02:53 UTC
Temperature: 16.7°C (62°F)
Dewpoint: 12.2°C (54°F) [RH = 75%]
Pressure (altimeter): 30.15 inches Hg (1021.1 mb)
[Sea-level pressure: 1020.9 mb]
Winds: from the NNE (30 degrees) at 6 MPH (5 knots; 2.6 m/s)
Visibility: 10 or more miles (16+ km)
Ceiling: at least 12,000 feet AGL
Clouds: few clouds at 30000 feet AGL
Present Weather: no significant weather observed at this time
KTPA 180253Z 03005KT 10SM FEW300 17/12 A3015 RMK AO2 SLP209 T01670122 51003

Conditions at: KTPA observed 18 November 2018  01:53 UTC
Temperature: 15.6°C (60°F)
Dewpoint: 12.2°C (54°F) [RH = 80%]
Pressure (altimeter): 30.15 inches Hg (1021.1 mb)
[Sea-level pressure: 1020.9 mb]
Winds: from the N (10 degrees) at 3 MPH (3 knots; 1.6 m/s)
Visibility: 10 or more miles (16+ km)
Ceiling: at least 12,000 feet AGL
Clouds: few clouds at 30000 feet AGL
Present Weather: no significant weather observed at this time
KTPA 180153Z 01003KT 10SM FEW300 16/12 A3015 RMK AO2 SLP209 T01560122

Conditions at: KTPA observed 18 November 2018  00:53 UTC
Temperature: 16.7°C (62°F)
Dewpoint: 12.8°C (55°F) [RH = 78%]
Pressure (altimeter): 30.15 inches Hg (1021.1 mb)
[Sea-level pressure: 1020.8 mb]
Winds: from the N (360 degrees) at 5 MPH (4 knots; 2.1 m/s)
Visibility: 10 or more miles (16+ km)
Ceiling: at least 12,000 feet AGL
Clouds: sky clear below 12,000 feet AGL
Present Weather: no significant weather observed at this time
KTPA 180053Z 36004KT 10SM CLR 17/13 A3015 RMK AO2 SLP208 T01670128

Conditions at: KTPA observed 17 November 2018  23:53 UTC
Temperature: 17.8°C (64°F)
Dewpoint: 13.3°C (56°F) [RH = 75%]
Pressure (altimeter): 30.14 inches Hg (1020.7 mb)
[Sea-level pressure: 1020.7 mb]
Winds: from the N (360 degrees) at 8 MPH (7 knots; 3.6 m/s)
Visibility: 10 or more miles (16+ km)
Ceiling: at least 12,000 feet AGL
Clouds: scattered clouds at 34000 feet AGL
Present Weather: no significant weather observed at this time
KTPA 172353Z 36007KT 10SM SCT340 18/13 A3014 RMK AO2 SLP207 T01780133 10239 20178 52010

Conditions at: KTPA observed 17 November 2018  22:53 UTC
Temperature: 20.0°C (68°F)
Dewpoint: 11.1°C (52°F) [RH = 57%]
Pressure (altimeter): 30.13 inches Hg (1020.4 mb)
[Sea-level pressure: 1020.4 mb]
Winds: from the N (360 degrees) at 5 MPH (4 knots; 2.1 m/s)
Visibility: 10 or more miles (16+ km)
Ceiling: 34000 feet AGL
Clouds: broken clouds at 34000 feet AGL
Present Weather: no significant weather observed at this time
KTPA 172253Z 36004KT 10SM BKN340 20/11 A3013 RMK AO2 SLP204 T02000111

Conditions at: KTPA observed 17 November 2018  21:53 UTC
Temperature: 22.8°C (73°F)
Dewpoint: 9.4°C (49°F) [RH = 42%]
Pressure (altimeter): 30.12 inches Hg (1020.1 mb)
[Sea-level pressure: 1020.0 mb]
Winds: from the NE (40 degrees) at 6 MPH (5 knots; 2.6 m/s)
Visibility: 10 or more miles (16+ km)
Ceiling: 35000 feet AGL
Clouds: broken clouds at 35000 feet AGL
Present Weather: no significant weather observed at this time
KTPA 172153Z 04005KT 10SM BKN350 23/09 A3012 RMK AO2 SLP200 T02280094

Conditions at: KTPA observed 17 November 2018  20:53 UTC
Temperature: 22.2°C (72°F)
Dewpoint: 11.1°C (52°F) [RH = 49%]
Pressure (altimeter): 30.11 inches Hg (1019.7 mb)
[Sea-level pressure: 1019.7 mb]
Winds: calm
Visibility: 10 or more miles (16+ km)
Ceiling: 35000 feet AGL
Clouds: broken clouds at 35000 feet AGL
Present Weather: no significant weather observed at this time
KTPA 172053Z 00000KT 10SM BKN350 22/11 A3011 RMK AO2 SLP197 T02220111 55010

Conditions at: KTPA observed 17 November 2018  19:53 UTC
Temperature: 23.3°C (74°F)
Dewpoint: 9.4°C (49°F) [RH = 41%]
Pressure (altimeter): 30.11 inches Hg (1019.7 mb)
[Sea-level pressure: 1019.7 mb]
Winds: calm
Visibility: 10 or more miles (16+ km)
Ceiling: 35000 feet AGL
Clouds: broken clouds at 35000 feet AGL
Present Weather: no significant weather observed at this time
KTPA 171953Z 00000KT 10SM BKN350 23/09 A3011 RMK AO2 SLP197 T02330094

Conditions at: KTPA observed 17 November 2018  18:53 UTC
Temperature: 22.8°C (73°F)
Dewpoint: 8.3°C (47°F) [RH = 39%]
Pressure (altimeter): 30.12 inches Hg (1020.1 mb)
[Sea-level pressure: 1019.9 mb]
Winds: calm
Visibility: 10 or more miles (16+ km)
Ceiling: at least 12,000 feet AGL
Clouds: few clouds at 25000 feet AGL
Present Weather: no significant weather observed at this time
KTPA 171853Z 00000KT 10SM FEW250 23/08 A3012 RMK AO2 SLP199 T02280083

Conditions at: KTPA observed 17 November 2018  17:53 UTC
Temperature: 21.7°C (71°F)
Dewpoint: 8.3°C (47°F) [RH = 42%]
Pressure (altimeter): 30.14 inches Hg (1020.7 mb)
[Sea-level pressure: 1020.7 mb]
Winds: variable direction winds at 5 MPH (4 knots; 2.1 m/s)
Visibility: 10 or more miles (16+ km)
Ceiling: at least 12,000 feet AGL
Clouds: sky clear below 12,000 feet AGL
Present Weather: no significant weather observed at this time
KTPA 171753Z VRB04KT 10SM CLR 22/08 A3014 RMK AO2 SLP207 T02170083 10222 20100 58026

Conditions at: KTPA observed 17 November 2018  16:53 UTC
Temperature: 20.6°C (69°F)
Dewpoint: 9.4°C (49°F) [RH = 49%]
Pressure (altimeter): 30.18 inches Hg (1022.1 mb)
[Sea-level pressure: 1021.9 mb]
Winds: from the NE (40 degrees) at 7 MPH (6 knots; 3.1 m/s)
Visibility: 10 or more miles (16+ km)
Ceiling: at least 12,000 feet AGL
Clouds: sky clear below 12,000 feet AGL
Present Weather: no significant weather observed at this time
KTPA 171653Z 04006KT 10SM CLR 21/09 A3018 RMK AO2 SLP219 T02060094

Conditions at: KTPA observed 17 November 2018  15:53 UTC
Temperature: 18.9°C (66°F)
Dewpoint: 9.4°C (49°F) [RH = 54%]
Pressure (altimeter): 30.20 inches Hg (1022.8 mb)
[Sea-level pressure: 1022.6 mb]
Winds: from the NE (50 degrees) at 7 MPH (6 knots; 3.1 m/s)
Visibility: 10 or more miles (16+ km)
Ceiling: at least 12,000 feet AGL
Clouds: few clouds at 15000 feet AGL
Present Weather:
SOME DATA ABOVE MAY BE INACCURATE!!!
"$" is an indication the sensor requires maintenance
KTPA 171553Z 05006KT 10SM FEW150 19/09 A3020 RMK AO2 SLP226 T01890094 $

Conditions at: KTPA observed 17 November 2018  14:53 UTC
Temperature: 16.1°C (61°F)
Dewpoint: 7.8°C (46°F) [RH = 58%]
Pressure (altimeter): 30.22 inches Hg (1023.5 mb)
[Sea-level pressure: 1023.3 mb]
Winds: from the NNE (30 degrees) at 8 MPH (7 knots; 3.6 m/s)
Visibility: 10 or more miles (16+ km)
Ceiling: at least 12,000 feet AGL
Clouds: sky clear below 12,000 feet AGL
Present Weather:
SOME DATA ABOVE MAY BE INACCURATE!!!
"$" is an indication the sensor requires maintenance
KTPA 171453Z 03007KT 10SM CLR 16/08 A3022 RMK AO2 SLP233 T01610078 51008 $

Conditions at: KTPA observed 17 November 2018  13:53 UTC
Temperature: 13.9°C (57°F)
Dewpoint: 5.6°C (42°F) [RH = 57%]
Pressure (altimeter): 30.21 inches Hg (1023.1 mb)
[Sea-level pressure: 1023.1 mb]
Winds: from the NNE (30 degrees) at 8 MPH (7 knots; 3.6 m/s)
Visibility: 10 or more miles (16+ km)
Ceiling: at least 12,000 feet AGL
Clouds: sky clear below 12,000 feet AGL
Present Weather:
SOME DATA ABOVE MAY BE INACCURATE!!!
"$" is an indication the sensor requires maintenance
KTPA 171353Z 03007KT 10SM CLR 14/06 A3021 RMK AO2 SLP231 T01390056 $

Conditions at: KTPA observed 17 November 2018  12:53 UTC
Temperature: 11.7°C (53°F)
Dewpoint: 6.1°C (43°F) [RH = 68%]
Pressure (altimeter): 30.21 inches Hg (1023.1 mb)
[Sea-level pressure: 1023.0 mb]
Winds: from the NNE (30 degrees) at 6 MPH (5 knots; 2.6 m/s)
Visibility: 10 or more miles (16+ km)
Ceiling: at least 12,000 feet AGL
Clouds: sky clear below 12,000 feet AGL
Present Weather: no significant weather observed at this time
KTPA 171253Z 03005KT 10SM CLR 12/06 A3021 RMK AO2 SLP230 T01170061